LiveATC.Net - Listen to live air traffic control over the Internet!


ICAO: LKTB  IATA: BRQ   Airport: Brno-Turany Airport
City: Brno
Country: Czech Republic   Continent: Europe
LKTB METAR Weather: LKTB 201420Z 07016KT 1200 R27/P2000N SN SCT006 BKN014 OVC021 00/M00 Q1013 R27/690394 RMK REG QNH 1006
LKTB Flight Activity (FlightAware)

LKTB Gnd/Twr/Radar
Feed Status: UP   Listeners: 4
Listen in your browser - HTML5 player (in browser, HTML5)
Listen in your browser - requires Flash (in browser, requires Flash)
Click here to listen with your own player (launches your MP3 player)
LKTB Gnd/Twr/Radar Audio Archives
FacilityFrequency
Brno Ground125.425
Brno Handling131.800
Brno Radar (Approach)127.350
Brno Tower119.600

NOTICE

Unauthorized use prohibited. See LiveATC.net Terms of Service


Find LiveATC Audio Streams


Airport/ARTCC Code

Frequency Search
(e.g., 124.400, 128.75)
Site-wide search
 


Browse LiveATC Feeds
Top 50 LiveATC Feeds
Bad Weather Areas

LiveATC FAQ
Offer a LiveATC Feed
Contact LiveATC.net
Press Inquiries

LiveATC on iPhone
LiveATC on Android

Windows Phone
Windows 8/10

LiveATC Mobile
(Mobile browser)

ATC Audio Archives
Interesting Recordings

LiveATC Forums


Home Page
About LiveATC.net
Make a Donation
Terms of Use
Privacy Policy

Canadian Air Freqs

AIRMETs/SIGMETs

FAA Airport Status
Nat'l Airspace Status
Arrival Demand Charts


Server Software By:
Icecast.org
Liquidsoap